sensor_id;sensor_type;location;lat;lon;timestamp;temperature;humidity
26909;DHT22;14477;51.038;4.588;2023-09-07T00:00:20;22.00;65.50
26909;DHT22;14477;51.038;4.588;2023-09-07T00:02:46;22.00;65.60
26909;DHT22;14477;51.038;4.588;2023-09-07T00:05:12;21.90;65.80
26909;DHT22;14477;51.038;4.588;2023-09-07T00:07:39;21.90;65.90
26909;DHT22;14477;51.038;4.588;2023-09-07T00:10:05;21.90;66.10
26909;DHT22;14477;51.038;4.588;2023-09-07T00:12:31;21.90;66.30
26909;DHT22;14477;51.038;4.588;2023-09-07T00:14:57;21.80;66.30
26909;DHT22;14477;51.038;4.588;2023-09-07T00:17:23;21.80;66.40
26909;DHT22;14477;51.038;4.588;2023-09-07T00:19:50;21.70;66.40
26909;DHT22;14477;51.038;4.588;2023-09-07T00:22:17;21.70;66.40
26909;DHT22;14477;51.038;4.588;2023-09-07T00:24:44;21.70;66.60
26909;DHT22;14477;51.038;4.588;2023-09-07T00:27:10;21.60;66.70
26909;DHT22;14477;51.038;4.588;2023-09-07T00:29:37;21.60;66.80
26909;DHT22;14477;51.038;4.588;2023-09-07T00:32:04;21.60;67.10
26909;DHT22;14477;51.038;4.588;2023-09-07T00:34:30;21.50;67.10
26909;DHT22;14477;51.038;4.588;2023-09-07T00:36:56;21.50;67.10
26909;DHT22;14477;51.038;4.588;2023-09-07T00:39:21;21.50;67.20
26909;DHT22;14477;51.038;4.588;2023-09-07T00:41:47;21.40;67.30
26909;DHT22;14477;51.038;4.588;2023-09-07T00:44:13;21.40;67.50
26909;DHT22;14477;51.038;4.588;2023-09-07T00:46:39;21.40;67.60
26909;DHT22;14477;51.038;4.588;2023-09-07T00:49:05;21.30;67.80
26909;DHT22;14477;51.038;4.588;2023-09-07T00:51:32;21.30;67.80
26909;DHT22;14477;51.038;4.588;2023-09-07T00:53:58;21.30;68.00
26909;DHT22;14477;51.038;4.588;2023-09-07T00:56:25;21.20;68.10
26909;DHT22;14477;51.038;4.588;2023-09-07T00:58:53;21.20;68.40
26909;DHT22;14477;51.038;4.588;2023-09-07T01:01:20;21.20;68.40
26909;DHT22;14477;51.038;4.588;2023-09-07T01:03:47;21.10;68.50
26909;DHT22;14477;51.038;4.588;2023-09-07T01:06:17;21.10;68.50
26909;DHT22;14477;51.038;4.588;2023-09-07T01:08:50;21.10;69.10
26909;DHT22;14477;51.038;4.588;2023-09-07T01:11:18;21.10;69.60
26909;DHT22;14477;51.038;4.588;2023-09-07T01:13:48;21.00;68.90
26909;DHT22;14477;51.038;4.588;2023-09-07T01:16:14;21.00;68.90
26909;DHT22;14477;51.038;4.588;2023-09-07T01:18:41;20.90;69.00
26909;DHT22;14477;51.038;4.588;2023-09-07T01:21:08;20.90;69.20
26909;DHT22;14477;51.038;4.588;2023-09-07T01:23:37;20.90;69.30
26909;DHT22;14477;51.038;4.588;2023-09-07T01:26:07;20.90;70.00
26909;DHT22;14477;51.038;4.588;2023-09-07T01:28:37;20.80;69.70
26909;DHT22;14477;51.038;4.588;2023-09-07T01:31:03;20.80;69.60
26909;DHT22;14477;51.038;4.588;2023-09-07T01:33:30;20.80;69.60
26909;DHT22;14477;51.038;4.588;2023-09-07T01:35:56;20.80;69.70
26909;DHT22;14477;51.038;4.588;2023-09-07T01:38:21;20.70;69.80
26909;DHT22;14477;51.038;4.588;2023-09-07T01:40:47;20.70;70.00
26909;DHT22;14477;51.038;4.588;2023-09-07T01:43:13;20.70;70.00
26909;DHT22;14477;51.038;4.588;2023-09-07T01:45:39;20.70;70.10
26909;DHT22;14477;51.038;4.588;2023-09-07T01:48:10;20.70;70.20
26909;DHT22;14477;51.038;4.588;2023-09-07T01:50:36;20.60;70.80
26909;DHT22;14477;51.038;4.588;2023-09-07T01:53:02;20.60;70.30
26909;DHT22;14477;51.038;4.588;2023-09-07T01:55:30;20.60;70.40
26909;DHT22;14477;51.038;4.588;2023-09-07T01:57:56;20.60;70.50
26909;DHT22;14477;51.038;4.588;2023-09-07T02:00:22;20.60;70.50
26909;DHT22;14477;51.038;4.588;2023-09-07T02:02:48;20.60;70.60
26909;DHT22;14477;51.038;4.588;2023-09-07T02:05:14;20.50;70.70
26909;DHT22;14477;51.038;4.588;2023-09-07T02:07:39;20.50;70.90
26909;DHT22;14477;51.038;4.588;2023-09-07T02:10:06;20.50;70.90
26909;DHT22;14477;51.038;4.588;2023-09-07T02:12:32;20.50;71.00
26909;DHT22;14477;51.038;4.588;2023-09-07T02:15:02;20.40;71.00
26909;DHT22;14477;51.038;4.588;2023-09-07T02:17:28;20.40;71.70
26909;DHT22;14477;51.038;4.588;2023-09-07T02:19:56;20.40;71.20
26909;DHT22;14477;51.038;4.588;2023-09-07T02:22:22;20.40;71.20
26909;DHT22;14477;51.038;4.588;2023-09-07T02:24:47;20.40;71.30
26909;DHT22;14477;51.038;4.588;2023-09-07T02:27:13;20.30;71.40
26909;DHT22;14477;51.038;4.588;2023-09-07T02:29:39;20.30;71.50
26909;DHT22;14477;51.038;4.588;2023-09-07T02:32:05;20.30;71.60
26909;DHT22;14477;51.038;4.588;2023-09-07T02:34:31;20.30;71.70
26909;DHT22;14477;51.038;4.588;2023-09-07T02:36:57;20.30;71.80
26909;DHT22;14477;51.038;4.588;2023-09-07T02:39:23;20.20;71.70
26909;DHT22;14477;51.038;4.588;2023-09-07T02:41:52;21.30;77.80
26909;DHT22;14477;51.038;4.588;2023-09-07T02:44:18;20.20;72.00
26909;DHT22;14477;51.038;4.588;2023-09-07T02:46:44;20.20;72.00
26909;DHT22;14477;51.038;4.588;2023-09-07T02:49:09;20.10;72.00
26909;DHT22;14477;51.038;4.588;2023-09-07T02:51:35;20.10;72.10
26909;DHT22;14477;51.038;4.588;2023-09-07T02:54:02;20.10;72.20
26909;DHT22;14477;51.038;4.588;2023-09-07T02:56:28;20.10;72.40
26909;DHT22;14477;51.038;4.588;2023-09-07T02:58:54;20.10;72.30
26909;DHT22;14477;51.038;4.588;2023-09-07T03:01:20;20.00;72.30
26909;DHT22;14477;51.038;4.588;2023-09-07T03:03:47;20.00;72.40
26909;DHT22;14477;51.038;4.588;2023-09-07T03:06:14;20.00;72.50
26909;DHT22;14477;51.038;4.588;2023-09-07T03:08:40;20.00;72.70
26909;DHT22;14477;51.038;4.588;2023-09-07T03:11:07;19.90;72.60
26909;DHT22;14477;51.038;4.588;2023-09-07T03:13:33;19.90;72.70
26909;DHT22;14477;51.038;4.588;2023-09-07T03:15:59;19.90;72.70
26909;DHT22;14477;51.038;4.588;2023-09-07T03:18:25;19.90;72.80
26909;DHT22;14477;51.038;4.588;2023-09-07T03:20:54;19.80;72.90
26909;DHT22;14477;51.038;4.588;2023-09-07T03:23:21;19.90;73.30
26909;DHT22;14477;51.038;4.588;2023-09-07T03:25:47;19.80;73.00
26909;DHT22;14477;51.038;4.588;2023-09-07T03:28:13;19.80;73.10
26909;DHT22;14477;51.038;4.588;2023-09-07T03:30:38;19.80;73.20
26909;DHT22;14477;51.038;4.588;2023-09-07T03:33:05;19.80;73.20
26909;DHT22;14477;51.038;4.588;2023-09-07T03:35:31;19.70;73.20
26909;DHT22;14477;51.038;4.588;2023-09-07T03:37:57;19.70;73.60
26909;DHT22;14477;51.038;4.588;2023-09-07T03:40:23;19.70;73.40
26909;DHT22;14477;51.038;4.588;2023-09-07T03:42:49;19.70;73.50
26909;DHT22;14477;51.038;4.588;2023-09-07T03:45:15;19.60;73.60
26909;DHT22;14477;51.038;4.588;2023-09-07T03:47:41;19.60;73.60
26909;DHT22;14477;51.038;4.588;2023-09-07T03:50:07;19.60;73.70
26909;DHT22;14477;51.038;4.588;2023-09-07T03:52:33;19.50;73.70
26909;DHT22;14477;51.038;4.588;2023-09-07T03:54:59;19.50;73.70
26909;DHT22;14477;51.038;4.588;2023-09-07T03:57:26;19.50;73.90
26909;DHT22;14477;51.038;4.588;2023-09-07T03:59:53;19.50;74.00
26909;DHT22;14477;51.038;4.588;2023-09-07T04:02:21;19.50;74.00
26909;DHT22;14477;51.038;4.588;2023-09-07T04:04:54;19.40;74.00
26909;DHT22;14477;51.038;4.588;2023-09-07T04:07:21;19.40;75.00
26909;DHT22;14477;51.038;4.588;2023-09-07T04:09:47;19.30;74.90
26909;DHT22;14477;51.038;4.588;2023-09-07T04:12:13;19.30;74.20
26909;DHT22;14477;51.038;4.588;2023-09-07T04:14:38;19.30;74.20
26909;DHT22;14477;51.038;4.588;2023-09-07T04:17:05;19.30;74.40
26909;DHT22;14477;51.038;4.588;2023-09-07T04:19:30;19.30;74.50
26909;DHT22;14477;51.038;4.588;2023-09-07T04:22:00;19.30;74.60
26909;DHT22;14477;51.038;4.588;2023-09-07T04:24:26;19.20;75.00
26909;DHT22;14477;51.038;4.588;2023-09-07T04:26:53;19.20;74.60
26909;DHT22;14477;51.038;4.588;2023-09-07T04:29:19;19.20;74.70
26909;DHT22;14477;51.038;4.588;2023-09-07T04:31:45;18.70;77.40
26909;DHT22;14477;51.038;4.588;2023-09-07T04:34:10;19.10;74.80
26909;DHT22;14477;51.038;4.588;2023-09-07T04:36:36;19.10;74.80
26909;DHT22;14477;51.038;4.588;2023-09-07T04:39:02;19.10;74.90
26909;DHT22;14477;51.038;4.588;2023-09-07T04:41:29;19.10;74.90
26909;DHT22;14477;51.038;4.588;2023-09-07T04:43:55;19.10;75.00
26909;DHT22;14477;51.038;4.588;2023-09-07T04:46:24;19.00;75.80
26909;DHT22;14477;51.038;4.588;2023-09-07T04:48:49;19.00;75.50
26909;DHT22;14477;51.038;4.588;2023-09-07T04:51:15;19.00;75.10
26909;DHT22;14477;51.038;4.588;2023-09-07T04:53:42;18.90;75.10
26909;DHT22;14477;51.038;4.588;2023-09-07T04:56:08;19.00;75.30
26909;DHT22;14477;51.038;4.588;2023-09-07T04:58:34;18.90;75.30
26909;DHT22;14477;51.038;4.588;2023-09-07T05:01:08;18.90;75.40
26909;DHT22;14477;51.038;4.588;2023-09-07T05:03:35;18.90;75.90
26909;DHT22;14477;51.038;4.588;2023-09-07T05:06:01;18.90;75.50
26909;DHT22;14477;51.038;4.588;2023-09-07T05:08:28;19.10;80.10
26909;DHT22;14477;51.038;4.588;2023-09-07T05:10:59;18.80;75.70
26909;DHT22;14477;51.038;4.588;2023-09-07T05:13:26;18.80;76.30
26909;DHT22;14477;51.038;4.588;2023-09-07T05:15:53;18.80;75.80
26909;DHT22;14477;51.038;4.588;2023-09-07T05:18:20;18.80;81.70
26909;DHT22;14477;51.038;4.588;2023-09-07T05:20:47;18.70;75.80
26909;DHT22;14477;51.038;4.588;2023-09-07T05:23:20;17.90;79.50
26909;DHT22;14477;51.038;4.588;2023-09-07T05:25:47;18.70;76.00
26909;DHT22;14477;51.038;4.588;2023-09-07T05:28:16;18.70;76.00
26909;DHT22;14477;51.038;4.588;2023-09-07T05:30:42;18.70;76.40
26909;DHT22;14477;51.038;4.588;2023-09-07T05:33:13;18.70;76.10
26909;DHT22;14477;51.038;4.588;2023-09-07T05:35:40;18.70;76.70
26909;DHT22;14477;51.038;4.588;2023-09-07T05:38:06;17.70;80.10
26909;DHT22;14477;51.038;4.588;2023-09-07T05:40:36;18.70;76.40
26909;DHT22;14477;51.038;4.588;2023-09-07T05:43:03;18.70;77.00
26909;DHT22;14477;51.038;4.588;2023-09-07T05:45:30;18.70;76.60
26909;DHT22;14477;51.038;4.588;2023-09-07T05:47:57;18.70;76.80
26909;DHT22;14477;51.038;4.588;2023-09-07T05:50:23;18.70;76.70
26909;DHT22;14477;51.038;4.588;2023-09-07T05:52:49;18.70;76.90
26909;DHT22;14477;51.038;4.588;2023-09-07T05:55:14;18.70;76.90
26909;DHT22;14477;51.038;4.588;2023-09-07T05:57:41;18.70;80.50
26909;DHT22;14477;51.038;4.588;2023-09-07T06:00:07;18.70;77.10
26909;DHT22;14477;51.038;4.588;2023-09-07T06:02:33;18.70;80.70
26909;DHT22;14477;51.038;4.588;2023-09-07T06:04:58;18.70;77.40
26909;DHT22;14477;51.038;4.588;2023-09-07T06:07:24;18.70;77.50
26909;DHT22;14477;51.038;4.588;2023-09-07T06:09:50;18.80;77.60
26909;DHT22;14477;51.038;4.588;2023-09-07T06:12:16;18.80;77.80
26909;DHT22;14477;51.038;4.588;2023-09-07T06:14:41;18.80;77.90
26909;DHT22;14477;51.038;4.588;2023-09-07T06:17:07;19.80;81.90
26909;DHT22;14477;51.038;4.588;2023-09-07T06:19:33;18.90;78.10
26909;DHT22;14477;51.038;4.588;2023-09-07T06:22:00;19.20;81.10
26909;DHT22;14477;51.038;4.588;2023-09-07T06:24:25;18.90;78.40
26909;DHT22;14477;51.038;4.588;2023-09-07T06:26:51;18.90;78.50
26909;DHT22;14477;51.038;4.588;2023-09-07T06:29:16;19.00;78.70
26909;DHT22;14477;51.038;4.588;2023-09-07T06:31:42;19.00;78.80
26909;DHT22;14477;51.038;4.588;2023-09-07T06:34:08;17.80;83.70
26909;DHT22;14477;51.038;4.588;2023-09-07T06:36:34;18.70;83.10
26909;DHT22;14477;51.038;4.588;2023-09-07T06:39:00;19.10;79.10
26909;DHT22;14477;51.038;4.588;2023-09-07T06:41:25;19.20;79.20
26909;DHT22;14477;51.038;4.588;2023-09-07T06:43:52;19.20;79.30
26909;DHT22;14477;51.038;4.588;2023-09-07T06:46:17;19.80;83.30
26909;DHT22;14477;51.038;4.588;2023-09-07T06:48:43;19.30;79.50
26909;DHT22;14477;51.038;4.588;2023-09-07T06:51:09;19.40;79.70
26909;DHT22;14477;51.038;4.588;2023-09-07T06:53:35;20.50;85.40
26909;DHT22;14477;51.038;4.588;2023-09-07T06:56:02;19.50;79.90
26909;DHT22;14477;51.038;4.588;2023-09-07T06:58:28;19.50;80.10
26909;DHT22;14477;51.038;4.588;2023-09-07T07:01:01;19.60;80.10
26909;DHT22;14477;51.038;4.588;2023-09-07T07:03:29;19.60;82.60
26909;DHT22;14477;51.038;4.588;2023-09-07T07:05:56;19.70;80.50
26909;DHT22;14477;51.038;4.588;2023-09-07T07:08:22;19.80;80.60
26909;DHT22;14477;51.038;4.588;2023-09-07T07:10:49;19.50;83.80
26909;DHT22;14477;51.038;4.588;2023-09-07T07:13:15;20.00;81.20
26909;DHT22;14477;51.038;4.588;2023-09-07T07:15:41;20.10;81.40
26909;DHT22;14477;51.038;4.588;2023-09-07T07:18:07;20.20;81.50
26909;DHT22;14477;51.038;4.588;2023-09-07T07:20:42;20.40;81.50
26909;DHT22;14477;51.038;4.588;2023-09-07T07:23:07;20.50;82.00
26909;DHT22;14477;51.038;4.588;2023-09-07T07:25:34;20.60;81.80
26909;DHT22;14477;51.038;4.588;2023-09-07T07:28:06;20.80;82.40
26909;DHT22;14477;51.038;4.588;2023-09-07T07:30:36;21.00;83.40
26909;DHT22;14477;51.038;4.588;2023-09-07T07:33:04;21.20;83.80
26909;DHT22;14477;51.038;4.588;2023-09-07T07:35:33;21.50;83.80
26909;DHT22;14477;51.038;4.588;2023-09-07T07:38:00;21.70;84.00
26909;DHT22;14477;51.038;4.588;2023-09-07T07:40:29;22.00;83.90
26909;DHT22;14477;51.038;4.588;2023-09-07T07:42:55;22.30;84.40
26909;DHT22;14477;51.038;4.588;2023-09-07T07:45:21;22.60;84.90
26909;DHT22;14477;51.038;4.588;2023-09-07T07:47:50;23.00;85.20
26909;DHT22;14477;51.038;4.588;2023-09-07T07:50:17;23.40;85.00
26909;DHT22;14477;51.038;4.588;2023-09-07T07:52:44;23.80;85.70
26909;DHT22;14477;51.038;4.588;2023-09-07T07:55:10;24.20;86.30
26909;DHT22;14477;51.038;4.588;2023-09-07T07:57:36;24.60;86.70
26909;DHT22;14477;51.038;4.588;2023-09-07T08:00:03;25.10;86.60
26909;DHT22;14477;51.038;4.588;2023-09-07T08:02:30;25.60;86.70
26909;DHT22;14477;51.038;4.588;2023-09-07T08:04:57;26.00;87.20
26909;DHT22;14477;51.038;4.588;2023-09-07T08:07:23;26.50;87.50
26909;DHT22;14477;51.038;4.588;2023-09-07T08:09:49;27.00;87.30
26909;DHT22;14477;51.038;4.588;2023-09-07T08:12:16;27.50;87.00
26909;DHT22;14477;51.038;4.588;2023-09-07T08:14:42;28.00;86.80
26909;DHT22;14477;51.038;4.588;2023-09-07T08:17:09;28.50;86.70
26909;DHT22;14477;51.038;4.588;2023-09-07T08:19:35;29.00;86.20
26909;DHT22;14477;51.038;4.588;2023-09-07T08:22:01;29.60;85.90
26909;DHT22;14477;51.038;4.588;2023-09-07T08:24:30;30.10;85.10
26909;DHT22;14477;51.038;4.588;2023-09-07T08:26:56;30.60;84.00
26909;DHT22;14477;51.038;4.588;2023-09-07T08:29:26;31.10;82.70
26909;DHT22;14477;51.038;4.588;2023-09-07T08:31:55;31.50;80.40
26909;DHT22;14477;51.038;4.588;2023-09-07T08:34:21;32.00;79.70
26909;DHT22;14477;51.038;4.588;2023-09-07T08:36:48;32.40;79.60
26909;DHT22;14477;51.038;4.588;2023-09-07T08:39:16;32.80;78.60
26909;DHT22;14477;51.038;4.588;2023-09-07T08:41:43;33.20;77.40
26909;DHT22;14477;51.038;4.588;2023-09-07T08:44:10;33.50;76.20
26909;DHT22;14477;51.038;4.588;2023-09-07T08:46:40;33.90;75.50
26909;DHT22;14477;51.038;4.588;2023-09-07T08:49:06;34.20;72.60
26909;DHT22;14477;51.038;4.588;2023-09-07T08:51:32;34.60;73.60
26909;DHT22;14477;51.038;4.588;2023-09-07T08:53:58;34.80;72.20
26909;DHT22;14477;51.038;4.588;2023-09-07T08:56:24;35.10;71.50
26909;DHT22;14477;51.038;4.588;2023-09-07T08:58:51;35.50;70.70
26909;DHT22;14477;51.038;4.588;2023-09-07T09:01:17;35.80;69.50
26909;DHT22;14477;51.038;4.588;2023-09-07T09:03:43;36.00;68.30
26909;DHT22;14477;51.038;4.588;2023-09-07T09:06:11;36.30;67.70
26909;DHT22;14477;51.038;4.588;2023-09-07T09:08:47;36.60;67.10
26909;DHT22;14477;51.038;4.588;2023-09-07T09:11:17;36.90;63.00
26909;DHT22;14477;51.038;4.588;2023-09-07T09:13:43;37.20;65.00
26909;DHT22;14477;51.038;4.588;2023-09-07T09:16:10;37.40;63.50
26909;DHT22;14477;51.038;4.588;2023-09-07T09:18:36;37.60;62.50
26909;DHT22;14477;51.038;4.588;2023-09-07T09:21:03;37.80;61.80
26909;DHT22;14477;51.038;4.588;2023-09-07T09:23:35;38.10;60.80
26909;DHT22;14477;51.038;4.588;2023-09-07T09:26:02;38.30;58.10
26909;DHT22;14477;51.038;4.588;2023-09-07T09:28:31;38.50;58.60
26909;DHT22;14477;51.038;4.588;2023-09-07T09:30:58;38.70;57.30
26909;DHT22;14477;51.038;4.588;2023-09-07T09:33:25;38.80;56.40
26909;DHT22;14477;51.038;4.588;2023-09-07T09:35:53;39.00;55.90
26909;DHT22;14477;51.038;4.588;2023-09-07T09:38:19;39.10;55.00
26909;DHT22;14477;51.038;4.588;2023-09-07T09:40:45;39.20;54.70
26909;DHT22;14477;51.038;4.588;2023-09-07T09:43:12;39.30;54.20
26909;DHT22;14477;51.038;4.588;2023-09-07T09:45:38;39.40;53.80
26909;DHT22;14477;51.038;4.588;2023-09-07T09:48:05;39.50;53.30
26909;DHT22;14477;51.038;4.588;2023-09-07T09:50:32;39.60;52.70
26909;DHT22;14477;51.038;4.588;2023-09-07T09:53:05;39.70;52.40
26909;DHT22;14477;51.038;4.588;2023-09-07T09:55:32;39.90;51.60
26909;DHT22;14477;51.038;4.588;2023-09-07T09:58:00;40.10;52.00
26909;DHT22;14477;51.038;4.588;2023-09-07T10:00:28;40.20;51.60
26909;DHT22;14477;51.038;4.588;2023-09-07T10:03:07;40.40;50.80
26909;DHT22;14477;51.038;4.588;2023-09-07T10:05:37;40.60;48.70
26909;DHT22;14477;51.038;4.588;2023-09-07T10:08:15;40.70;49.90
26909;DHT22;14477;51.038;4.588;2023-09-07T10:10:42;40.90;47.80
26909;DHT22;14477;51.038;4.588;2023-09-07T10:13:08;41.00;49.10
26909;DHT22;14477;51.038;4.588;2023-09-07T10:15:34;41.20;48.80
26909;DHT22;14477;51.038;4.588;2023-09-07T10:18:15;41.40;48.10
26909;DHT22;14477;51.038;4.588;2023-09-07T10:20:56;41.50;45.20
26909;DHT22;14477;51.038;4.588;2023-09-07T10:23:41;41.70;45.90
26909;DHT22;14477;51.038;4.588;2023-09-07T10:26:25;41.70;45.00
26909;DHT22;14477;51.038;4.588;2023-09-07T10:29:01;41.90;44.50
26909;DHT22;14477;51.038;4.588;2023-09-07T10:31:30;42.00;43.70
26909;DHT22;14477;51.038;4.588;2023-09-07T10:33:56;42.10;45.00
26909;DHT22;14477;51.038;4.588;2023-09-07T10:36:23;42.20;44.60
26909;DHT22;14477;51.038;4.588;2023-09-07T10:38:50;42.30;44.20
26909;DHT22;14477;51.038;4.588;2023-09-07T10:41:18;42.40;43.60
26909;DHT22;14477;51.038;4.588;2023-09-07T10:44:02;42.40;43.20
26909;DHT22;14477;51.038;4.588;2023-09-07T10:46:28;42.40;41.60
26909;DHT22;14477;51.038;4.588;2023-09-07T10:48:54;42.50;42.90
26909;DHT22;14477;51.038;4.588;2023-09-07T10:51:21;42.60;42.60
26909;DHT22;14477;51.038;4.588;2023-09-07T10:53:49;42.60;42.20
26909;DHT22;14477;51.038;4.588;2023-09-07T10:56:15;42.70;42.20
26909;DHT22;14477;51.038;4.588;2023-09-07T10:58:41;42.80;41.90
26909;DHT22;14477;51.038;4.588;2023-09-07T11:01:10;42.90;41.40
26909;DHT22;14477;51.038;4.588;2023-09-07T11:03:37;43.00;41.20
26909;DHT22;14477;51.038;4.588;2023-09-07T11:06:10;43.10;40.50
26909;DHT22;14477;51.038;4.588;2023-09-07T11:08:36;43.10;39.30
26909;DHT22;14477;51.038;4.588;2023-09-07T11:11:02;43.20;40.50
26909;DHT22;14477;51.038;4.588;2023-09-07T11:13:29;43.30;40.70
26909;DHT22;14477;51.038;4.588;2023-09-07T11:15:56;43.30;40.20
26909;DHT22;14477;51.038;4.588;2023-09-07T11:18:23;43.50;39.60
26909;DHT22;14477;51.038;4.588;2023-09-07T11:20:50;43.60;39.60
26909;DHT22;14477;51.038;4.588;2023-09-07T11:23:17;43.60;39.20
26909;DHT22;14477;51.038;4.588;2023-09-07T11:25:44;43.60;39.80
26909;DHT22;14477;51.038;4.588;2023-09-07T11:28:10;43.70;38.80
26909;DHT22;14477;51.038;4.588;2023-09-07T11:30:52;43.80;38.60
26909;DHT22;14477;51.038;4.588;2023-09-07T11:33:19;43.80;37.20
26909;DHT22;14477;51.038;4.588;2023-09-07T11:35:45;43.80;38.40
26909;DHT22;14477;51.038;4.588;2023-09-07T11:38:13;43.80;38.20
26909;DHT22;14477;51.038;4.588;2023-09-07T11:40:39;43.90;37.50
26909;DHT22;14477;51.038;4.588;2023-09-07T11:43:08;43.90;37.50
26909;DHT22;14477;51.038;4.588;2023-09-07T11:45:34;43.90;37.30
26909;DHT22;14477;51.038;4.588;2023-09-07T11:47:59;43.90;37.50
26909;DHT22;14477;51.038;4.588;2023-09-07T11:50:25;44.00;37.40
26909;DHT22;14477;51.038;4.588;2023-09-07T11:52:51;43.90;37.10
26909;DHT22;14477;51.038;4.588;2023-09-07T11:55:17;44.00;37.00
26909;DHT22;14477;51.038;4.588;2023-09-07T11:57:43;44.00;36.80
26909;DHT22;14477;51.038;4.588;2023-09-07T12:00:10;44.10;36.80
26909;DHT22;14477;51.038;4.588;2023-09-07T12:02:37;44.10;36.60
26909;DHT22;14477;51.038;4.588;2023-09-07T12:05:04;44.20;36.50
26909;DHT22;14477;51.038;4.588;2023-09-07T12:07:30;44.20;36.00
26909;DHT22;14477;51.038;4.588;2023-09-07T12:09:56;44.20;35.90
26909;DHT22;14477;51.038;4.588;2023-09-07T12:12:23;44.30;35.70
26909;DHT22;14477;51.038;4.588;2023-09-07T12:14:49;44.20;35.40
26909;DHT22;14477;51.038;4.588;2023-09-07T12:17:14;44.30;35.10
26909;DHT22;14477;51.038;4.588;2023-09-07T12:19:40;44.20;35.40
26909;DHT22;14477;51.038;4.588;2023-09-07T12:22:11;44.10;35.00
26909;DHT22;14477;51.038;4.588;2023-09-07T12:24:37;44.10;35.30
26909;DHT22;14477;51.038;4.588;2023-09-07T12:27:03;44.10;35.40
26909;DHT22;14477;51.038;4.588;2023-09-07T12:29:29;44.20;35.80
26909;DHT22;14477;51.038;4.588;2023-09-07T12:31:55;44.20;35.60
26909;DHT22;14477;51.038;4.588;2023-09-07T12:34:21;44.30;35.50
26909;DHT22;14477;51.038;4.588;2023-09-07T12:36:47;44.30;35.20
26909;DHT22;14477;51.038;4.588;2023-09-07T12:39:13;44.40;35.00
26909;DHT22;14477;51.038;4.588;2023-09-07T12:41:39;44.40;34.70
26909;DHT22;14477;51.038;4.588;2023-09-07T12:44:05;44.40;34.60
26909;DHT22;14477;51.038;4.588;2023-09-07T12:46:32;44.30;34.80
26909;DHT22;14477;51.038;4.588;2023-09-07T12:48:58;44.30;34.70
26909;DHT22;14477;51.038;4.588;2023-09-07T12:51:23;44.30;34.60
26909;DHT22;14477;51.038;4.588;2023-09-07T12:53:49;44.30;34.50
26909;DHT22;14477;51.038;4.588;2023-09-07T12:56:15;44.20;34.40
26909;DHT22;14477;51.038;4.588;2023-09-07T12:58:43;44.20;34.60
26909;DHT22;14477;51.038;4.588;2023-09-07T13:01:09;44.10;34.00
26909;DHT22;14477;51.038;4.588;2023-09-07T13:03:38;44.00;33.90
26909;DHT22;14477;51.038;4.588;2023-09-07T13:06:04;43.90;33.40
26909;DHT22;14477;51.038;4.588;2023-09-07T13:08:30;43.80;33.70
26909;DHT22;14477;51.038;4.588;2023-09-07T13:10:56;43.80;33.70
26909;DHT22;14477;51.038;4.588;2023-09-07T13:13:23;43.80;33.70
26909;DHT22;14477;51.038;4.588;2023-09-07T13:15:51;43.60;33.70
26909;DHT22;14477;51.038;4.588;2023-09-07T13:18:17;43.60;34.00
26909;DHT22;14477;51.038;4.588;2023-09-07T13:20:43;43.50;33.80
26909;DHT22;14477;51.038;4.588;2023-09-07T13:23:08;43.50;33.70
26909;DHT22;14477;51.038;4.588;2023-09-07T13:25:34;43.40;33.50
26909;DHT22;14477;51.038;4.588;2023-09-07T13:28:00;43.30;34.00
26909;DHT22;14477;51.038;4.588;2023-09-07T13:30:26;43.20;33.90
26909;DHT22;14477;51.038;4.588;2023-09-07T13:32:52;43.20;34.00
26909;DHT22;14477;51.038;4.588;2023-09-07T13:35:18;43.10;33.70
26909;DHT22;14477;51.038;4.588;2023-09-07T13:37:44;43.10;33.60
26909;DHT22;14477;51.038;4.588;2023-09-07T13:43:25;42.60;33.70
26909;DHT22;14477;51.038;4.588;2023-09-07T13:45:51;42.40;33.60
26909;DHT22;14477;51.038;4.588;2023-09-07T13:48:16;42.20;33.70
26909;DHT22;14477;51.038;4.588;2023-09-07T13:50:42;41.90;33.60
26909;DHT22;14477;51.038;4.588;2023-09-07T13:53:08;41.80;34.30
26909;DHT22;14477;51.038;4.588;2023-09-07T13:55:34;41.70;34.60
26909;DHT22;14477;51.038;4.588;2023-09-07T13:58:00;41.50;34.50
26909;DHT22;14477;51.038;4.588;2023-09-07T14:00:26;41.30;35.70
26909;DHT22;14477;51.038;4.588;2023-09-07T14:02:52;41.20;34.80
26909;DHT22;14477;51.038;4.588;2023-09-07T14:05:18;41.00;34.60
26909;DHT22;14477;51.038;4.588;2023-09-07T14:07:44;40.80;34.90
26909;DHT22;14477;51.038;4.588;2023-09-07T14:10:10;40.60;34.60
26909;DHT22;14477;51.038;4.588;2023-09-07T14:12:36;40.50;34.90
26909;DHT22;14477;51.038;4.588;2023-09-07T14:15:01;40.20;34.80
26909;DHT22;14477;51.038;4.588;2023-09-07T14:17:27;40.00;34.90
26909;DHT22;14477;51.038;4.588;2023-09-07T14:19:53;39.80;35.00
26909;DHT22;14477;51.038;4.588;2023-09-07T14:22:19;39.60;35.30
26909;DHT22;14477;51.038;4.588;2023-09-07T14:24:44;39.50;35.60
26909;DHT22;14477;51.038;4.588;2023-09-07T14:27:10;39.30;35.70
26909;DHT22;14477;51.038;4.588;2023-09-07T14:29:36;39.10;36.10
26909;DHT22;14477;51.038;4.588;2023-09-07T14:32:02;39.00;36.20
26909;DHT22;14477;51.038;4.588;2023-09-07T14:34:29;38.80;36.30
26909;DHT22;14477;51.038;4.588;2023-09-07T14:36:55;38.70;36.40
26909;DHT22;14477;51.038;4.588;2023-09-07T14:39:21;38.60;36.70
26909;DHT22;14477;51.038;4.588;2023-09-07T14:41:50;38.60;36.90
26909;DHT22;14477;51.038;4.588;2023-09-07T14:44:18;38.50;37.20
26909;DHT22;14477;51.038;4.588;2023-09-07T14:46:44;38.40;37.10
26909;DHT22;14477;51.038;4.588;2023-09-07T14:49:10;38.30;37.40
26909;DHT22;14477;51.038;4.588;2023-09-07T14:51:35;38.30;37.80
26909;DHT22;14477;51.038;4.588;2023-09-07T14:54:01;38.20;37.90
26909;DHT22;14477;51.038;4.588;2023-09-07T14:56:27;38.20;38.20
26909;DHT22;14477;51.038;4.588;2023-09-07T14:58:54;38.10;38.50
26909;DHT22;14477;51.038;4.588;2023-09-07T15:01:20;38.20;38.40
26909;DHT22;14477;51.038;4.588;2023-09-07T15:03:45;38.20;38.80
26909;DHT22;14477;51.038;4.588;2023-09-07T15:06:11;38.20;38.60
26909;DHT22;14477;51.038;4.588;2023-09-07T15:08:38;38.10;38.40
26909;DHT22;14477;51.038;4.588;2023-09-07T15:11:04;38.10;38.60
26909;DHT22;14477;51.038;4.588;2023-09-07T15:13:30;38.00;38.70
26909;DHT22;14477;51.038;4.588;2023-09-07T15:15:55;37.90;38.80
26909;DHT22;14477;51.038;4.588;2023-09-07T15:18:21;37.90;39.10
26909;DHT22;14477;51.038;4.588;2023-09-07T15:20:47;37.80;39.00
26909;DHT22;14477;51.038;4.588;2023-09-07T15:23:13;37.70;39.00
26909;DHT22;14477;51.038;4.588;2023-09-07T15:25:39;37.60;39.40
26909;DHT22;14477;51.038;4.588;2023-09-07T15:28:04;37.50;39.50
26909;DHT22;14477;51.038;4.588;2023-09-07T15:30:34;37.50;39.70